createdAt,value
2018-09-20T00:00:51.859Z,16.90
2018-09-20T00:03:20.433Z,16.90
2018-09-20T00:05:48.976Z,16.90
2018-09-20T00:08:17.813Z,16.90
2018-09-20T00:10:46.363Z,16.90
2018-09-20T00:13:14.895Z,16.90
2018-09-20T00:15:43.486Z,16.90
2018-09-20T00:18:12.015Z,16.90
2018-09-20T00:20:40.651Z,16.90
2018-09-20T00:23:09.195Z,16.90
2018-09-20T00:25:37.727Z,16.90
2018-09-20T00:28:06.417Z,16.80
2018-09-20T00:30:34.979Z,16.80
2018-09-20T00:33:03.891Z,16.80
2018-09-20T00:35:32.454Z,16.80
2018-09-20T00:38:00.991Z,16.70
2018-09-20T00:40:29.531Z,16.70
2018-09-20T00:42:58.074Z,16.70
2018-09-20T00:45:26.622Z,16.70
2018-09-20T00:47:55.161Z,16.70
2018-09-20T00:50:23.863Z,16.70
2018-09-20T00:52:52.391Z,16.70
2018-09-20T00:55:20.915Z,16.70
2018-09-20T00:57:49.457Z,16.60
2018-09-20T01:00:18.005Z,16.60
2018-09-20T01:02:46.895Z,16.60
2018-09-20T01:05:15.427Z,16.60
2018-09-20T01:07:43.955Z,16.60
2018-09-20T01:10:12.579Z,16.60
2018-09-20T01:12:41.113Z,16.60
2018-09-20T01:15:09.663Z,16.50
2018-09-20T01:17:38.202Z,16.50
2018-09-20T01:20:07.167Z,16.50
2018-09-20T01:22:35.705Z,16.50
2018-09-20T01:25:04.279Z,16.50
2018-09-20T01:27:32.808Z,16.50
2018-09-20T01:30:01.363Z,16.50
2018-09-20T01:32:29.895Z,16.40
2018-09-20T01:34:58.430Z,16.40
2018-09-20T01:37:27.410Z,16.40
2018-09-20T01:39:55.942Z,16.50
2018-09-20T01:42:24.476Z,16.40
2018-09-20T01:44:53.012Z,16.50
2018-09-20T01:47:21.558Z,16.50
2018-09-20T01:49:50.087Z,16.40
2018-09-20T01:52:18.627Z,16.40
2018-09-20T01:54:47.299Z,16.40
2018-09-20T01:57:15.831Z,16.40
2018-09-20T01:59:44.393Z,16.30
2018-09-20T02:02:12.955Z,16.30
2018-09-20T02:04:41.503Z,16.30
2018-09-20T02:07:10.034Z,16.40
2018-09-20T02:09:38.561Z,16.30
2018-09-20T02:12:07.308Z,16.30
2018-09-20T02:14:35.867Z,16.30
2018-09-20T02:17:04.415Z,16.30
2018-09-20T02:19:32.982Z,16.30
2018-09-20T02:22:01.519Z,16.30
2018-09-20T02:24:30.047Z,16.30
2018-09-20T02:26:58.588Z,16.30
2018-09-20T02:29:27.188Z,16.30
2018-09-20T02:31:55.719Z,16.30
2018-09-20T02:34:24.254Z,16.30
2018-09-20T02:36:52.787Z,16.40
2018-09-20T02:39:21.311Z,16.40
2018-09-20T02:41:49.847Z,16.30
2018-09-20T02:44:18.395Z,16.40
2018-09-20T02:46:47.062Z,16.40
2018-09-20T02:49:15.587Z,16.40
2018-09-20T02:51:44.136Z,16.40
2018-09-20T02:54:12.772Z,16.40
2018-09-20T02:56:41.311Z,16.40
2018-09-20T02:59:10.020Z,16.40
2018-09-20T03:01:38.559Z,16.40
2018-09-20T03:04:07.327Z,16.40
2018-09-20T03:06:35.859Z,16.40
2018-09-20T03:09:06.150Z,16.40
2018-09-20T03:11:34.702Z,16.40
2018-09-20T03:14:03.247Z,16.40
2018-09-20T03:16:31.778Z,16.40
2018-09-20T03:19:00.362Z,16.40
2018-09-20T03:21:29.021Z,16.40
2018-09-20T03:23:57.602Z,16.40
2018-09-20T03:26:26.281Z,16.40
2018-09-20T03:28:54.833Z,16.50
2018-09-20T03:31:23.363Z,16.50
2018-09-20T03:33:51.892Z,16.60
2018-09-20T03:36:20.766Z,16.60
2018-09-20T03:38:49.604Z,16.60
2018-09-20T03:41:18.139Z,16.60
2018-09-20T03:43:46.671Z,16.60
2018-09-20T03:46:15.232Z,16.60
2018-09-20T03:48:43.773Z,16.50
2018-09-20T03:51:12.315Z,16.50
2018-09-20T03:53:40.872Z,16.50
2018-09-20T03:56:09.581Z,16.50
2018-09-20T03:58:38.118Z,16.50
2018-09-20T04:01:06.679Z,16.60
2018-09-20T04:03:35.232Z,16.50
2018-09-20T04:06:03.775Z,16.50
2018-09-20T04:08:32.315Z,16.40
2018-09-20T04:11:00.851Z,16.40
2018-09-20T04:13:29.573Z,16.40
2018-09-20T04:15:58.115Z,16.40
2018-09-20T04:18:26.651Z,16.40
2018-09-20T04:20:55.204Z,16.30
2018-09-20T04:23:23.752Z,16.30
2018-09-20T04:25:52.588Z,16.20
2018-09-20T04:28:21.136Z,16.20
2018-09-20T04:30:49.963Z,16.30
2018-09-20T04:33:18.497Z,16.30
2018-09-20T04:35:47.043Z,16.20
2018-09-20T04:38:15.582Z,16.20
2018-09-20T04:40:44.127Z,16.20
2018-09-20T04:43:12.706Z,16.20
2018-09-20T04:45:41.235Z,16.20
2018-09-20T04:48:09.775Z,16.20
2018-09-20T04:50:38.307Z,16.20
2018-09-20T04:53:06.866Z,16.20
2018-09-20T04:55:35.439Z,16.20
2018-09-20T04:58:03.977Z,16.20
2018-09-20T05:00:32.967Z,16.20
2018-09-20T05:03:01.532Z,16.20
2018-09-20T05:05:30.621Z,16.20
2018-09-20T05:07:59.194Z,16.30
2018-09-20T05:10:27.722Z,16.30
2018-09-20T05:12:56.599Z,16.20
2018-09-20T05:15:25.158Z,16.30
2018-09-20T05:17:53.687Z,16.30
2018-09-20T05:20:22.457Z,16.20
2018-09-20T05:22:51.098Z,16.30
2018-09-20T05:25:19.674Z,16.30
2018-09-20T05:27:48.299Z,16.40
2018-09-20T05:30:16.887Z,16.30
2018-09-20T05:32:45.591Z,16.30
2018-09-20T05:35:14.134Z,16.30
2018-09-20T05:37:42.727Z,16.30
2018-09-20T05:40:11.275Z,16.40
2018-09-20T05:42:39.839Z,16.30
2018-09-20T05:45:08.492Z,16.40
2018-09-20T05:47:37.039Z,16.40
2018-09-20T05:50:06.638Z,16.40
2018-09-20T05:52:35.171Z,16.40
2018-09-20T05:55:03.891Z,16.50
2018-09-20T05:57:32.427Z,16.50
2018-09-20T06:00:01.011Z,16.50
2018-09-20T06:02:29.906Z,16.50
2018-09-20T06:04:58.455Z,16.50
2018-09-20T06:07:27.045Z,16.50
2018-09-20T06:09:55.595Z,16.50
2018-09-20T06:12:24.119Z,16.50
2018-09-20T06:14:52.643Z,16.50
2018-09-20T06:17:21.194Z,16.60
2018-09-20T06:19:50.107Z,16.60
2018-09-20T06:22:18.647Z,16.60
2018-09-20T06:24:47.195Z,16.60
2018-09-20T06:27:15.771Z,16.60
2018-09-20T06:29:44.319Z,16.60
2018-09-20T06:32:12.978Z,16.60
2018-09-20T06:34:41.566Z,16.60
2018-09-20T06:37:10.271Z,16.50
2018-09-20T06:39:38.898Z,16.60
2018-09-20T06:42:07.491Z,16.60
2018-09-20T06:44:36.047Z,16.50
2018-09-20T06:47:04.651Z,16.60
2018-09-20T06:49:33.179Z,16.70
2018-09-20T06:52:01.722Z,16.80
2018-09-20T06:54:30.681Z,16.80
2018-09-20T06:56:59.266Z,16.90
2018-09-20T06:59:27.928Z,17.00
2018-09-20T07:01:56.543Z,17.00
2018-09-20T07:04:25.118Z,17.00
2018-09-20T07:06:53.656Z,17.10
2018-09-20T07:09:22.247Z,17.20
2018-09-20T07:11:50.846Z,17.20
2018-09-20T07:14:19.530Z,17.30
2018-09-20T07:16:48.077Z,17.30
2018-09-20T07:19:16.741Z,17.20
2018-09-20T07:21:45.179Z,17.30
2018-09-20T07:24:13.726Z,17.40
2018-09-20T07:26:42.343Z,17.40
2018-09-20T07:29:11.025Z,17.40
2018-09-20T07:31:39.575Z,17.40
2018-09-20T07:34:08.113Z,17.50
2018-09-20T07:36:36.760Z,17.50
2018-09-20T07:39:07.851Z,17.50
2018-09-20T07:41:36.843Z,17.50
2018-09-20T07:44:05.397Z,17.60
2018-09-20T07:46:33.962Z,17.70
2018-09-20T07:49:02.619Z,17.70
2018-09-20T07:51:31.174Z,17.70
2018-09-20T07:53:59.761Z,17.80
2018-09-20T07:56:28.341Z,17.80
2018-09-20T07:58:56.892Z,18.00
2018-09-20T08:01:25.462Z,17.80
2018-09-20T08:03:54.016Z,17.90
2018-09-20T08:06:22.819Z,17.80
2018-09-20T08:08:51.407Z,17.90
2018-09-20T08:11:20.024Z,17.90
2018-09-20T08:13:48.635Z,17.70
2018-09-20T08:16:17.207Z,17.70
2018-09-20T08:18:45.876Z,17.60
2018-09-20T08:21:14.536Z,17.70
2018-09-20T08:23:43.203Z,17.70
2018-09-20T08:26:11.750Z,17.70
2018-09-20T08:28:40.620Z,17.80
2018-09-20T08:31:09.298Z,17.80
2018-09-20T08:33:37.839Z,18.00
2018-09-20T08:36:06.546Z,18.10
2018-09-20T08:38:35.090Z,18.00
2018-09-20T08:41:03.983Z,18.00
2018-09-20T08:43:32.543Z,18.00
2018-09-20T08:46:01.109Z,18.10
2018-09-20T08:48:29.679Z,18.10
2018-09-20T08:50:58.250Z,18.20
2018-09-20T08:53:26.795Z,18.30
2018-09-20T08:55:55.376Z,18.20
2018-09-20T08:58:24.118Z,18.40
2018-09-20T09:00:52.683Z,18.40
2018-09-20T09:03:21.230Z,18.30
2018-09-20T09:05:49.791Z,18.30
2018-09-20T09:08:18.335Z,18.40
2018-09-20T09:10:46.936Z,18.50
2018-09-20T09:13:15.463Z,18.50
2018-09-20T09:15:44.007Z,18.60
2018-09-20T09:18:12.575Z,18.60
2018-09-20T09:20:41.114Z,18.40
2018-09-20T09:23:09.741Z,18.50
2018-09-20T09:25:38.315Z,18.60
2018-09-20T09:28:07.264Z,18.60
2018-09-20T09:30:35.853Z,18.40
2018-09-20T09:33:04.531Z,18.60
2018-09-20T09:35:33.100Z,18.70
2018-09-20T09:38:01.780Z,18.80
2018-09-20T09:40:30.340Z,18.80
2018-09-20T09:43:40.696Z,18.80
2018-09-20T09:46:09.531Z,19.00
2018-09-20T09:48:38.131Z,18.90
2018-09-20T09:51:06.735Z,18.90
2018-09-20T09:53:35.323Z,19.30
2018-09-20T09:56:03.870Z,19.30
2018-09-20T09:58:32.443Z,19.20
2018-09-20T10:01:01.003Z,19.00
2018-09-20T10:03:29.719Z,19.20
2018-09-20T10:05:58.287Z,18.90
2018-09-20T10:08:26.843Z,18.90
2018-09-20T10:10:55.383Z,18.70
2018-09-20T10:13:23.968Z,18.40
2018-09-20T10:15:52.512Z,18.60
2018-09-20T10:18:21.039Z,18.60
2018-09-20T10:20:49.918Z,18.50
2018-09-20T10:23:18.463Z,18.40
2018-09-20T10:25:47.086Z,18.30
2018-09-20T10:28:15.679Z,18.30
2018-09-20T10:30:44.216Z,18.20
2018-09-20T10:33:12.747Z,18.20
2018-09-20T10:35:41.319Z,18.70
2018-09-20T10:38:10.095Z,19.10
2018-09-20T10:40:38.631Z,19.10
2018-09-20T10:43:07.214Z,19.20
2018-09-20T10:45:35.751Z,19.30
2018-09-20T10:48:04.304Z,19.10
2018-09-20T10:50:32.880Z,19.00
2018-09-20T10:53:01.432Z,18.70
2018-09-20T10:55:29.967Z,18.80
2018-09-20T10:57:58.524Z,18.60
2018-09-20T11:00:27.264Z,18.30
2018-09-20T11:02:55.860Z,18.30
2018-09-20T11:05:24.386Z,18.40
2018-09-20T11:07:52.998Z,18.60
2018-09-20T11:10:21.779Z,18.50
2018-09-20T11:12:50.488Z,18.60
2018-09-20T11:15:19.079Z,18.50
2018-09-20T11:17:48.060Z,18.40
2018-09-20T11:20:16.605Z,18.50
2018-09-20T11:22:45.446Z,18.30
2018-09-20T11:25:14.159Z,18.30
2018-09-20T11:27:42.763Z,18.30
2018-09-20T11:30:11.311Z,18.40
2018-09-20T11:32:39.853Z,18.70
2018-09-20T11:35:08.919Z,18.80
2018-09-20T11:37:37.772Z,18.90
2018-09-20T11:40:06.691Z,19.00
2018-09-20T11:42:35.222Z,19.00
2018-09-20T11:45:03.802Z,19.10
2018-09-20T11:47:32.363Z,19.10
2018-09-20T11:50:01.038Z,19.10
2018-09-20T11:52:29.593Z,18.80
2018-09-20T11:54:58.297Z,18.60
2018-09-20T11:57:26.966Z,18.40
2018-09-20T11:59:55.939Z,18.30
2018-09-20T12:02:24.796Z,18.20
2018-09-20T12:04:53.447Z,18.10
2018-09-20T12:07:22.192Z,18.20
2018-09-20T12:09:50.856Z,18.20
2018-09-20T12:12:19.639Z,18.20
2018-09-20T12:14:48.725Z,18.40
2018-09-20T12:17:17.414Z,18.40
2018-09-20T12:19:46.167Z,18.50
2018-09-20T12:22:14.780Z,18.60
2018-09-20T12:24:43.319Z,18.60
2018-09-20T12:27:11.924Z,18.50
2018-09-20T12:29:40.456Z,18.40
2018-09-20T12:32:09.055Z,18.40
2018-09-20T12:34:37.633Z,18.30
2018-09-20T12:37:06.339Z,18.30
2018-09-20T12:39:34.874Z,18.30
2018-09-20T12:42:03.441Z,18.20
2018-09-20T12:44:32.165Z,18.20
2018-09-20T12:47:00.706Z,18.00
2018-09-20T12:49:29.239Z,18.00
2018-09-20T12:51:57.765Z,18.00
2018-09-20T12:54:26.323Z,18.00
2018-09-20T12:56:54.879Z,17.90
2018-09-20T12:59:23.418Z,18.00
2018-09-20T13:01:52.118Z,17.90
2018-09-20T13:04:20.679Z,17.90
2018-09-20T13:06:49.289Z,17.80
2018-09-20T13:09:17.834Z,17.80
2018-09-20T13:11:46.419Z,17.80
2018-09-20T13:14:14.948Z,17.70
2018-09-20T13:16:43.486Z,17.80
2018-09-20T13:19:12.246Z,17.80
2018-09-20T13:21:40.896Z,17.90
2018-09-20T13:24:09.781Z,17.80
2018-09-20T13:26:38.350Z,17.80
2018-09-20T13:29:07.017Z,17.70
2018-09-20T13:31:35.567Z,17.60
2018-09-20T13:34:04.151Z,17.60
2018-09-20T13:36:32.867Z,17.60
2018-09-20T13:39:01.438Z,17.50
2018-09-20T13:41:30.351Z,17.50
2018-09-20T13:43:58.919Z,17.50
2018-09-20T13:46:27.550Z,17.50
2018-09-20T13:48:56.119Z,17.50
2018-09-20T13:51:24.673Z,17.50
2018-09-20T13:53:53.915Z,17.50
2018-09-20T13:56:22.601Z,17.50
2018-09-20T13:58:51.184Z,17.40
2018-09-20T14:01:19.739Z,17.40
2018-09-20T14:03:48.367Z,17.40
2018-09-20T14:06:16.935Z,17.40
2018-09-20T14:08:45.967Z,17.40
2018-09-20T14:11:14.719Z,17.60
2018-09-20T14:13:43.303Z,17.70
2018-09-20T14:16:11.879Z,17.70
2018-09-20T14:18:40.435Z,17.70
2018-09-20T14:21:09.011Z,17.70
2018-09-20T14:23:37.551Z,17.60
2018-09-20T14:26:06.354Z,17.50
2018-09-20T14:28:35.210Z,17.50
2018-09-20T14:31:03.779Z,17.40
2018-09-20T14:33:32.311Z,17.40
2018-09-20T14:36:00.928Z,17.60
2018-09-20T14:38:29.463Z,18.50
2018-09-20T14:40:58.007Z,18.70
2018-09-20T14:43:26.546Z,18.50
2018-09-20T14:45:55.429Z,18.10
2018-09-20T14:48:23.983Z,17.90
2018-09-20T14:50:52.568Z,17.80
2018-09-20T14:53:21.195Z,17.70
2018-09-20T14:55:49.876Z,17.80
2018-09-20T14:58:18.419Z,17.70
2018-09-20T15:00:46.986Z,17.60
2018-09-20T15:03:15.854Z,17.70
2018-09-20T15:05:44.394Z,17.60
2018-09-20T15:08:13.014Z,17.60
2018-09-20T15:10:41.574Z,17.60
2018-09-20T15:13:10.122Z,17.60
2018-09-20T15:15:38.667Z,17.60
2018-09-20T15:18:07.226Z,17.40
2018-09-20T15:20:36.082Z,17.40
2018-09-20T15:23:04.715Z,17.40
2018-09-20T15:25:33.269Z,17.30
2018-09-20T15:28:01.895Z,17.30
2018-09-20T15:30:30.527Z,17.30
2018-09-20T15:32:59.455Z,17.30
2018-09-20T15:35:28.037Z,17.20
2018-09-20T15:37:56.604Z,17.10
2018-09-20T15:40:25.195Z,17.20
2018-09-20T15:42:53.745Z,17.10
2018-09-20T15:45:22.459Z,17.20
2018-09-20T15:47:51.007Z,17.10
2018-09-20T15:50:19.568Z,17.20
2018-09-20T15:52:48.123Z,17.10
2018-09-20T15:55:16.667Z,17.10
2018-09-20T15:57:45.249Z,17.00
2018-09-20T16:00:14.275Z,17.00
2018-09-20T16:02:42.826Z,17.00
2018-09-20T16:05:11.546Z,16.90
2018-09-20T16:07:40.303Z,16.90
2018-09-20T16:10:08.981Z,16.90
2018-09-20T16:12:37.868Z,16.80
2018-09-20T16:15:06.788Z,16.90
2018-09-20T16:17:35.360Z,16.80
2018-09-20T16:20:03.993Z,16.80
2018-09-20T16:22:32.559Z,16.70
2018-09-20T16:25:01.101Z,16.70
2018-09-20T16:27:29.655Z,16.70
2018-09-20T16:30:21.064Z,16.70
2018-09-20T16:35:21.739Z,16.70
2018-09-20T16:38:06.351Z,16.60
2018-09-20T16:40:38.055Z,16.60
2018-09-20T16:43:06.914Z,16.60
2018-09-20T16:45:35.522Z,16.50
2018-09-20T16:48:04.122Z,16.40
2018-09-20T16:50:32.658Z,16.40
2018-09-20T16:53:01.237Z,16.40
2018-09-20T16:55:29.939Z,16.30
2018-09-20T16:57:58.574Z,16.30
2018-09-20T17:00:27.131Z,16.40
2018-09-20T17:02:55.675Z,16.30
2018-09-20T17:05:24.223Z,16.30
2018-09-20T17:07:52.884Z,16.30
2018-09-20T17:10:21.455Z,16.30
2018-09-20T17:12:50.128Z,16.30
2018-09-20T17:15:19.028Z,16.20
2018-09-20T17:17:47.570Z,16.20
2018-09-20T17:20:16.155Z,16.20
2018-09-20T17:22:45.035Z,16.20
2018-09-20T17:25:13.582Z,16.30
2018-09-20T17:27:42.156Z,16.20
2018-09-20T17:30:10.816Z,16.20
2018-09-20T17:32:39.397Z,16.10
2018-09-20T17:35:09.151Z,16.10
2018-09-20T17:37:41.163Z,16.10
2018-09-20T17:40:11.063Z,16.00
2018-09-20T17:42:40.646Z,15.90
2018-09-20T17:45:09.363Z,15.90
2018-09-20T17:47:37.924Z,15.90
2018-09-20T17:50:06.543Z,15.80
2018-09-20T17:52:36.236Z,15.80
2018-09-20T17:55:05.511Z,15.70
2018-09-20T17:57:35.788Z,15.70
2018-09-20T18:00:04.409Z,15.70
2018-09-20T18:02:33.694Z,15.70
2018-09-20T18:05:02.373Z,15.70
2018-09-20T18:07:30.919Z,15.70
2018-09-20T18:09:59.472Z,15.70
2018-09-20T18:12:28.027Z,15.70
2018-09-20T18:14:56.841Z,15.60
2018-09-20T18:17:25.439Z,15.60
2018-09-20T18:19:54.011Z,15.60
2018-09-20T18:22:22.562Z,15.60
2018-09-20T18:24:51.104Z,15.70
2018-09-20T18:27:19.716Z,15.70
2018-09-20T18:29:48.251Z,15.60
2018-09-20T18:32:17.070Z,15.60
2018-09-20T18:34:45.621Z,15.60
2018-09-20T18:37:14.164Z,15.60
2018-09-20T18:39:42.747Z,15.70
2018-09-20T18:42:11.307Z,15.70
2018-09-20T18:44:39.965Z,15.60
2018-09-20T18:47:08.511Z,15.60
2018-09-20T18:49:37.059Z,15.50
2018-09-20T18:52:05.595Z,15.40
2018-09-20T18:54:34.603Z,15.20
2018-09-20T18:57:03.298Z,15.10
2018-09-20T18:59:31.839Z,14.90
2018-09-20T19:02:00.509Z,14.80
2018-09-20T19:04:29.054Z,14.80
2018-09-20T19:06:57.596Z,14.70
2018-09-20T19:09:26.336Z,14.70
2018-09-20T19:11:54.902Z,14.70
2018-09-20T19:14:23.480Z,14.70
2018-09-20T19:16:52.051Z,14.60
2018-09-20T19:19:20.587Z,14.60
2018-09-20T19:21:49.412Z,14.60
2018-09-20T19:24:18.238Z,14.60
2018-09-20T19:26:46.830Z,14.60
2018-09-20T19:29:15.372Z,14.50
2018-09-20T19:31:43.916Z,14.40
2018-09-20T19:34:12.459Z,14.40
2018-09-20T19:36:41.334Z,14.40
2018-09-20T19:39:11.445Z,14.30
2018-09-20T19:41:40.313Z,14.30
2018-09-20T19:44:08.845Z,14.20
2018-09-20T19:46:37.391Z,14.30
2018-09-20T19:49:05.965Z,14.20
2018-09-20T19:51:34.517Z,14.20
2018-09-20T19:54:03.284Z,14.20
2018-09-20T19:56:31.831Z,14.20
2018-09-20T19:59:00.395Z,14.20
2018-09-20T20:01:28.952Z,14.20
2018-09-20T20:03:57.505Z,14.10
2018-09-20T20:06:26.044Z,14.10
2018-09-20T20:08:54.592Z,14.10
2018-09-20T20:11:23.449Z,14.00
2018-09-20T20:13:52.237Z,14.00
2018-09-20T20:16:20.855Z,14.00
2018-09-20T20:18:49.423Z,14.00
2018-09-20T20:21:17.986Z,14.10
2018-09-20T20:23:46.691Z,14.10
2018-09-20T20:26:15.231Z,14.00
2018-09-20T20:28:43.805Z,13.90
2018-09-20T20:31:12.342Z,13.90
2018-09-20T20:33:40.899Z,13.90
2018-09-20T20:36:09.589Z,13.80
2018-09-20T20:38:38.207Z,13.90
2018-09-20T20:41:06.787Z,13.80
2018-09-20T20:43:35.320Z,13.80
2018-09-20T20:46:03.934Z,13.80
2018-09-20T20:48:32.733Z,13.70
2018-09-20T20:51:01.455Z,13.70
2018-09-20T20:53:29.987Z,13.70
2018-09-20T20:55:58.524Z,13.70
2018-09-20T20:58:27.190Z,13.70
2018-09-20T21:00:55.731Z,13.70
2018-09-20T21:03:24.274Z,13.60
2018-09-20T21:05:53.123Z,13.60
2018-09-20T21:08:21.667Z,13.50
2018-09-20T21:10:50.524Z,13.50
2018-09-20T21:13:19.066Z,13.50
2018-09-20T21:15:47.613Z,13.50
2018-09-20T21:18:16.143Z,13.50
2018-09-20T21:20:44.910Z,13.50
2018-09-20T21:23:13.567Z,13.50
2018-09-20T21:25:42.107Z,13.50
2018-09-20T21:28:10.646Z,13.50
2018-09-20T21:30:39.191Z,13.50
2018-09-20T21:33:07.794Z,13.40
2018-09-20T21:35:36.334Z,13.50
2018-09-20T21:38:04.899Z,13.50
2018-09-20T21:40:33.463Z,13.40
2018-09-20T21:43:02.047Z,13.40
2018-09-20T21:45:30.587Z,13.40
2018-09-20T21:47:59.180Z,13.40
2018-09-20T21:50:27.719Z,13.40
2018-09-20T21:52:56.715Z,13.30
2018-09-20T21:55:25.251Z,13.30
2018-09-20T21:57:53.793Z,13.30
2018-09-20T22:00:22.415Z,13.20
2018-09-20T22:02:56.327Z,13.20
2018-09-20T22:05:24.919Z,13.30
2018-09-20T22:07:53.446Z,13.20
2018-09-20T22:10:22.246Z,13.20
2018-09-20T22:12:50.797Z,13.20
2018-09-20T22:15:25.060Z,13.20
2018-09-20T22:17:54.521Z,13.10
2018-09-20T22:20:24.286Z,13.10
2018-09-20T22:22:53.117Z,13.10
2018-09-20T22:25:21.911Z,13.00
2018-09-20T22:27:50.451Z,13.10
2018-09-20T22:30:18.989Z,13.10
2018-09-20T22:32:47.855Z,13.10
2018-09-20T22:35:16.403Z,13.00
2018-09-20T22:37:45.055Z,13.10
2018-09-20T22:40:13.638Z,13.10
2018-09-20T22:42:42.180Z,13.10
2018-09-20T22:45:10.827Z,13.00
2018-09-20T22:47:39.379Z,13.10
2018-09-20T22:50:08.075Z,13.10
2018-09-20T22:52:36.678Z,13.10
2018-09-20T22:55:05.263Z,13.20
2018-09-20T22:57:33.803Z,13.20
2018-09-20T23:00:02.715Z,13.10
2018-09-20T23:02:31.259Z,13.10
2018-09-20T23:04:59.859Z,13.10
2018-09-20T23:07:28.447Z,13.00
2018-09-20T23:09:57.099Z,13.00
2018-09-20T23:12:25.701Z,13.00
2018-09-20T23:14:54.236Z,12.90
2018-09-20T23:17:22.818Z,12.90
2018-09-20T23:19:51.360Z,12.90
2018-09-20T23:22:19.987Z,12.90
2018-09-20T23:24:48.523Z,12.90
2018-09-20T23:27:17.144Z,12.80
2018-09-20T23:29:45.683Z,12.80
2018-09-20T23:32:14.463Z,12.80
2018-09-20T23:34:43.015Z,12.90
2018-09-20T23:37:11.573Z,12.80
2018-09-20T23:39:40.523Z,12.90
2018-09-20T23:42:09.067Z,12.90
2018-09-20T23:44:37.605Z,12.90
2018-09-20T23:47:06.143Z,13.00
2018-09-20T23:49:34.679Z,12.90
2018-09-20T23:52:03.290Z,12.90
2018-09-20T23:54:31.840Z,12.90
2018-09-20T23:57:00.483Z,12.90
2018-09-20T23:59:29.025Z,12.90
